sensor_id;sensor_type;location;lat;lon;timestamp;P1;durP1;ratioP1;P2;durP2;ratioP2
78209;SDS011;67485;48.816;9.930;2023-03-01T00:01:04;13.45;;;7.60;;
78209;SDS011;67485;48.816;9.930;2023-03-01T00:03:31;16.95;;;7.50;;
78209;SDS011;67485;48.816;9.930;2023-03-01T00:05:57;17.83;;;7.88;;
78209;SDS011;67485;48.816;9.930;2023-03-01T00:08:24;17.17;;;8.50;;
78209;SDS011;67485;48.816;9.930;2023-03-01T00:10:59;14.50;;;7.57;;
78209;SDS011;67485;48.816;9.930;2023-03-01T00:13:29;15.85;;;8.20;;
78209;SDS011;67485;48.816;9.930;2023-03-01T00:15:55;16.05;;;7.80;;
78209;SDS011;67485;48.816;9.930;2023-03-01T00:18:21;16.43;;;8.03;;
78209;SDS011;67485;48.816;9.930;2023-03-01T00:20:51;16.33;;;7.65;;
78209;SDS011;67485;48.816;9.930;2023-03-01T00:23:17;16.90;;;8.05;;
78209;SDS011;67485;48.816;9.930;2023-03-01T00:25:43;14.67;;;8.30;;
78209;SDS011;67485;48.816;9.930;2023-03-01T00:28:09;17.52;;;8.32;;
78209;SDS011;67485;48.816;9.930;2023-03-01T00:30:35;16.42;;;7.97;;
78209;SDS011;67485;48.816;9.930;2023-03-01T00:33:01;16.35;;;8.00;;
78209;SDS011;67485;48.816;9.930;2023-03-01T00:35:26;16.37;;;8.20;;
78209;SDS011;67485;48.816;9.930;2023-03-01T00:37:52;17.45;;;8.07;;
78209;SDS011;67485;48.816;9.930;2023-03-01T00:40:23;14.55;;;8.05;;
78209;SDS011;67485;48.816;9.930;2023-03-01T00:42:49;14.57;;;7.72;;
78209;SDS011;67485;48.816;9.930;2023-03-01T00:45:15;16.52;;;8.38;;
78209;SDS011;67485;48.816;9.930;2023-03-01T00:47:41;17.13;;;8.18;;
78209;SDS011;67485;48.816;9.930;2023-03-01T00:50:07;14.23;;;7.90;;
78209;SDS011;67485;48.816;9.930;2023-03-01T00:52:34;14.90;;;7.67;;
78209;SDS011;67485;48.816;9.930;2023-03-01T00:55:00;16.83;;;8.38;;
78209;SDS011;67485;48.816;9.930;2023-03-01T00:57:25;15.97;;;8.27;;
78209;SDS011;67485;48.816;9.930;2023-03-01T00:59:51;16.92;;;8.85;;
78209;SDS011;67485;48.816;9.930;2023-03-01T01:02:17;18.52;;;8.93;;
78209;SDS011;67485;48.816;9.930;2023-03-01T01:04:44;16.67;;;8.05;;
78209;SDS011;67485;48.816;9.930;2023-03-01T01:07:10;17.88;;;8.63;;
78209;SDS011;67485;48.816;9.930;2023-03-01T01:09:35;17.75;;;8.18;;
78209;SDS011;67485;48.816;9.930;2023-03-01T01:12:02;16.83;;;8.48;;
78209;SDS011;67485;48.816;9.930;2023-03-01T01:14:28;16.88;;;8.20;;
78209;SDS011;67485;48.816;9.930;2023-03-01T01:16:54;18.60;;;8.23;;
78209;SDS011;67485;48.816;9.930;2023-03-01T01:19:20;20.52;;;7.90;;
78209;SDS011;67485;48.816;9.930;2023-03-01T01:21:47;14.68;;;7.78;;
78209;SDS011;67485;48.816;9.930;2023-03-01T01:24:13;14.88;;;7.32;;
78209;SDS011;67485;48.816;9.930;2023-03-01T01:26:40;17.00;;;8.57;;
78209;SDS011;67485;48.816;9.930;2023-03-01T01:29:06;14.18;;;8.00;;
78209;SDS011;67485;48.816;9.930;2023-03-01T01:31:32;16.30;;;7.77;;
78209;SDS011;67485;48.816;9.930;2023-03-01T01:33:59;16.55;;;8.18;;
78209;SDS011;67485;48.816;9.930;2023-03-01T01:36:27;16.80;;;8.65;;
78209;SDS011;67485;48.816;9.930;2023-03-01T01:38:53;16.92;;;8.68;;
78209;SDS011;67485;48.816;9.930;2023-03-01T01:41:19;17.02;;;8.40;;
78209;SDS011;67485;48.816;9.930;2023-03-01T01:43:47;16.50;;;8.20;;
78209;SDS011;67485;48.816;9.930;2023-03-01T01:46:32;18.20;;;8.77;;
78209;SDS011;67485;48.816;9.930;2023-03-01T01:51:28;18.55;;;9.40;;
78209;SDS011;67485;48.816;9.930;2023-03-01T01:54:06;19.70;;;9.60;;
78209;SDS011;67485;48.816;9.930;2023-03-01T01:56:36;17.33;;;9.27;;
78209;SDS011;67485;48.816;9.930;2023-03-01T01:59:04;15.98;;;8.98;;
78209;SDS011;67485;48.816;9.930;2023-03-01T02:01:30;19.63;;;9.18;;
78209;SDS011;67485;48.816;9.930;2023-03-01T02:03:56;14.68;;;8.63;;
78209;SDS011;67485;48.816;9.930;2023-03-01T02:06:26;17.25;;;9.07;;
78209;SDS011;67485;48.816;9.930;2023-03-01T02:09:00;18.02;;;9.02;;
78209;SDS011;67485;48.816;9.930;2023-03-01T02:11:30;20.92;;;9.70;;
78209;SDS011;67485;48.816;9.930;2023-03-01T02:13:56;16.30;;;8.60;;
78209;SDS011;67485;48.816;9.930;2023-03-01T02:16:22;17.53;;;9.57;;
78209;SDS011;67485;48.816;9.930;2023-03-01T02:18:48;18.70;;;8.98;;
78209;SDS011;67485;48.816;9.930;2023-03-01T02:24:01;16.63;;;9.45;;
78209;SDS011;67485;48.816;9.930;2023-03-01T02:26:40;18.85;;;8.98;;
78209;SDS011;67485;48.816;9.930;2023-03-01T02:29:10;18.73;;;9.10;;
78209;SDS011;67485;48.816;9.930;2023-03-01T02:31:36;16.75;;;9.25;;
78209;SDS011;67485;48.816;9.930;2023-03-01T02:34:14;17.70;;;9.73;;
78209;SDS011;67485;48.816;9.930;2023-03-01T02:36:54;16.60;;;8.50;;
78209;SDS011;67485;48.816;9.930;2023-03-01T02:39:42;18.23;;;9.27;;
78209;SDS011;67485;48.816;9.930;2023-03-01T02:42:14;16.63;;;8.27;;
78209;SDS011;67485;48.816;9.930;2023-03-01T02:44:43;18.05;;;8.75;;
78209;SDS011;67485;48.816;9.930;2023-03-01T02:47:09;16.42;;;8.32;;
78209;SDS011;67485;48.816;9.930;2023-03-01T02:49:36;20.90;;;9.70;;
78209;SDS011;67485;48.816;9.930;2023-03-01T02:52:22;18.35;;;9.25;;
78209;SDS011;67485;48.816;9.930;2023-03-01T02:57:28;17.07;;;8.40;;
78209;SDS011;67485;48.816;9.930;2023-03-01T02:59:57;17.45;;;9.05;;
78209;SDS011;67485;48.816;9.930;2023-03-01T03:02:28;20.92;;;9.63;;
78209;SDS011;67485;48.816;9.930;2023-03-01T03:05:14;19.77;;;9.77;;
78209;SDS011;67485;48.816;9.930;2023-03-01T03:07:45;17.63;;;9.20;;
78209;SDS011;67485;48.816;9.930;2023-03-01T03:10:18;23.20;;;9.67;;
78209;SDS011;67485;48.816;9.930;2023-03-01T03:13:02;19.05;;;9.10;;
78209;SDS011;67485;48.816;9.930;2023-03-01T03:15:30;19.60;;;10.63;;
78209;SDS011;67485;48.816;9.930;2023-03-01T03:17:57;18.50;;;9.57;;
78209;SDS011;67485;48.816;9.930;2023-03-01T03:20:24;18.52;;;9.88;;
78209;SDS011;67485;48.816;9.930;2023-03-01T03:22:53;18.67;;;9.27;;
78209;SDS011;67485;48.816;9.930;2023-03-01T03:25:20;19.08;;;9.63;;
78209;SDS011;67485;48.816;9.930;2023-03-01T03:27:50;21.02;;;10.43;;
78209;SDS011;67485;48.816;9.930;2023-03-01T03:30:22;20.40;;;10.10;;
78209;SDS011;67485;48.816;9.930;2023-03-01T03:32:53;16.60;;;8.63;;
78209;SDS011;67485;48.816;9.930;2023-03-01T03:37:47;20.02;;;9.38;;
78209;SDS011;67485;48.816;9.930;2023-03-01T03:40:29;19.58;;;10.38;;
78209;SDS011;67485;48.816;9.930;2023-03-01T03:42:56;22.98;;;11.50;;
78209;SDS011;67485;48.816;9.930;2023-03-01T03:45:22;22.43;;;11.07;;
78209;SDS011;67485;48.816;9.930;2023-03-01T03:47:48;19.13;;;10.45;;
78209;SDS011;67485;48.816;9.930;2023-03-01T03:50:14;21.17;;;10.43;;
78209;SDS011;67485;48.816;9.930;2023-03-01T03:52:41;20.77;;;9.93;;
78209;SDS011;67485;48.816;9.930;2023-03-01T03:55:08;21.17;;;10.10;;
78209;SDS011;67485;48.816;9.930;2023-03-01T03:57:42;19.03;;;10.40;;
78209;SDS011;67485;48.816;9.930;2023-03-01T04:00:09;21.50;;;10.23;;
78209;SDS011;67485;48.816;9.930;2023-03-01T04:02:43;17.23;;;9.38;;
78209;SDS011;67485;48.816;9.930;2023-03-01T04:05:11;19.77;;;10.27;;
78209;SDS011;67485;48.816;9.930;2023-03-01T04:07:39;18.30;;;9.43;;
78209;SDS011;67485;48.816;9.930;2023-03-01T04:10:10;19.37;;;11.10;;
78209;SDS011;67485;48.816;9.930;2023-03-01T04:12:38;23.33;;;10.40;;
78209;SDS011;67485;48.816;9.930;2023-03-01T04:15:04;19.65;;;10.13;;
78209;SDS011;67485;48.816;9.930;2023-03-01T04:17:38;24.83;;;10.40;;
78209;SDS011;67485;48.816;9.930;2023-03-01T04:20:05;21.83;;;9.70;;
78209;SDS011;67485;48.816;9.930;2023-03-01T04:22:32;19.05;;;9.52;;
78209;SDS011;67485;48.816;9.930;2023-03-01T04:24:58;17.75;;;9.82;;
78209;SDS011;67485;48.816;9.930;2023-03-01T04:27:34;18.75;;;10.07;;
78209;SDS011;67485;48.816;9.930;2023-03-01T04:30:01;19.30;;;11.27;;
78209;SDS011;67485;48.816;9.930;2023-03-01T04:32:28;17.25;;;9.20;;
78209;SDS011;67485;48.816;9.930;2023-03-01T04:34:54;19.83;;;10.38;;
78209;SDS011;67485;48.816;9.930;2023-03-01T04:37:20;21.80;;;10.67;;
78209;SDS011;67485;48.816;9.930;2023-03-01T04:39:45;20.63;;;10.23;;
78209;SDS011;67485;48.816;9.930;2023-03-01T04:42:12;20.33;;;10.60;;
78209;SDS011;67485;48.816;9.930;2023-03-01T04:44:38;18.17;;;10.27;;
78209;SDS011;67485;48.816;9.930;2023-03-01T04:47:04;20.58;;;10.57;;
78209;SDS011;67485;48.816;9.930;2023-03-01T04:49:29;19.83;;;9.20;;
78209;SDS011;67485;48.816;9.930;2023-03-01T04:51:56;20.23;;;10.38;;
78209;SDS011;67485;48.816;9.930;2023-03-01T04:54:30;21.55;;;11.13;;
78209;SDS011;67485;48.816;9.930;2023-03-01T04:56:57;18.40;;;10.03;;
78209;SDS011;67485;48.816;9.930;2023-03-01T04:59:23;20.27;;;10.70;;
78209;SDS011;67485;48.816;9.930;2023-03-01T05:01:50;20.90;;;10.18;;
78209;SDS011;67485;48.816;9.930;2023-03-01T05:04:16;21.67;;;10.77;;
78209;SDS011;67485;48.816;9.930;2023-03-01T05:06:42;21.33;;;11.05;;
78209;SDS011;67485;48.816;9.930;2023-03-01T05:09:08;21.23;;;10.50;;
78209;SDS011;67485;48.816;9.930;2023-03-01T05:11:34;18.33;;;9.88;;
78209;SDS011;67485;48.816;9.930;2023-03-01T05:14:04;19.23;;;10.43;;
78209;SDS011;67485;48.816;9.930;2023-03-01T05:16:31;19.57;;;9.97;;
78209;SDS011;67485;48.816;9.930;2023-03-01T05:18:58;21.38;;;10.65;;
78209;SDS011;67485;48.816;9.930;2023-03-01T05:21:24;23.05;;;11.93;;
78209;SDS011;67485;48.816;9.930;2023-03-01T05:23:51;21.60;;;11.05;;
78209;SDS011;67485;48.816;9.930;2023-03-01T05:26:18;18.83;;;9.95;;
78209;SDS011;67485;48.816;9.930;2023-03-01T05:28:47;21.63;;;10.97;;
78209;SDS011;67485;48.816;9.930;2023-03-01T05:31:13;23.10;;;11.52;;
78209;SDS011;67485;48.816;9.930;2023-03-01T05:33:39;22.13;;;10.35;;
78209;SDS011;67485;48.816;9.930;2023-03-01T05:36:06;17.85;;;9.27;;
78209;SDS011;67485;48.816;9.930;2023-03-01T05:38:33;20.03;;;10.63;;
78209;SDS011;67485;48.816;9.930;2023-03-01T05:40:59;21.38;;;10.52;;
78209;SDS011;67485;48.816;9.930;2023-03-01T05:43:24;19.55;;;10.60;;
78209;SDS011;67485;48.816;9.930;2023-03-01T05:45:50;20.40;;;9.53;;
78209;SDS011;67485;48.816;9.930;2023-03-01T05:48:16;19.52;;;10.35;;
78209;SDS011;67485;48.816;9.930;2023-03-01T05:50:44;18.25;;;9.90;;
78209;SDS011;67485;48.816;9.930;2023-03-01T05:53:16;20.23;;;11.20;;
78209;SDS011;67485;48.816;9.930;2023-03-01T05:55:44;23.65;;;9.60;;
78209;SDS011;67485;48.816;9.930;2023-03-01T05:58:12;22.15;;;10.52;;
78209;SDS011;67485;48.816;9.930;2023-03-01T06:00:40;19.88;;;10.07;;
78209;SDS011;67485;48.816;9.930;2023-03-01T06:03:09;21.52;;;11.40;;
78209;SDS011;67485;48.816;9.930;2023-03-01T06:05:35;19.17;;;10.43;;
78209;SDS011;67485;48.816;9.930;2023-03-01T06:08:01;18.50;;;9.65;;
78209;SDS011;67485;48.816;9.930;2023-03-01T06:10:27;22.15;;;9.90;;
78209;SDS011;67485;48.816;9.930;2023-03-01T06:12:53;21.13;;;10.68;;
78209;SDS011;67485;48.816;9.930;2023-03-01T06:15:19;21.95;;;11.40;;
78209;SDS011;67485;48.816;9.930;2023-03-01T06:17:45;25.60;;;11.75;;
78209;SDS011;67485;48.816;9.930;2023-03-01T06:20:19;21.35;;;10.60;;
78209;SDS011;67485;48.816;9.930;2023-03-01T06:22:46;20.45;;;10.88;;
78209;SDS011;67485;48.816;9.930;2023-03-01T06:25:13;24.58;;;11.60;;
78209;SDS011;67485;48.816;9.930;2023-03-01T06:27:41;19.13;;;10.90;;
78209;SDS011;67485;48.816;9.930;2023-03-01T06:30:07;20.17;;;10.25;;
78209;SDS011;67485;48.816;9.930;2023-03-01T06:32:36;20.77;;;10.15;;
78209;SDS011;67485;48.816;9.930;2023-03-01T06:35:02;20.45;;;10.30;;
78209;SDS011;67485;48.816;9.930;2023-03-01T06:37:29;21.38;;;10.18;;
78209;SDS011;67485;48.816;9.930;2023-03-01T06:39:54;23.67;;;11.60;;
78209;SDS011;67485;48.816;9.930;2023-03-01T06:42:20;19.67;;;10.73;;
78209;SDS011;67485;48.816;9.930;2023-03-01T06:44:46;22.50;;;10.68;;
78209;SDS011;67485;48.816;9.930;2023-03-01T06:47:12;22.30;;;10.57;;
78209;SDS011;67485;48.816;9.930;2023-03-01T06:49:37;21.90;;;10.75;;
78209;SDS011;67485;48.816;9.930;2023-03-01T06:52:03;24.40;;;10.97;;
78209;SDS011;67485;48.816;9.930;2023-03-01T06:54:29;23.33;;;10.65;;
78209;SDS011;67485;48.816;9.930;2023-03-01T06:56:54;21.20;;;11.17;;
78209;SDS011;67485;48.816;9.930;2023-03-01T06:59:20;26.92;;;11.25;;
78209;SDS011;67485;48.816;9.930;2023-03-01T07:01:46;23.70;;;11.50;;
78209;SDS011;67485;48.816;9.930;2023-03-01T07:04:12;24.05;;;11.60;;
78209;SDS011;67485;48.816;9.930;2023-03-01T07:06:39;24.00;;;10.73;;
78209;SDS011;67485;48.816;9.930;2023-03-01T07:09:04;21.70;;;10.57;;
78209;SDS011;67485;48.816;9.930;2023-03-01T07:11:30;20.67;;;11.18;;
78209;SDS011;67485;48.816;9.930;2023-03-01T07:13:56;22.93;;;11.60;;
78209;SDS011;67485;48.816;9.930;2023-03-01T07:16:21;21.70;;;11.02;;
78209;SDS011;67485;48.816;9.930;2023-03-01T07:18:47;21.10;;;10.43;;
78209;SDS011;67485;48.816;9.930;2023-03-01T07:21:14;21.33;;;9.90;;
78209;SDS011;67485;48.816;9.930;2023-03-01T07:23:40;22.98;;;10.90;;
78209;SDS011;67485;48.816;9.930;2023-03-01T07:26:06;21.25;;;9.73;;
78209;SDS011;67485;48.816;9.930;2023-03-01T07:28:32;22.65;;;11.63;;
78209;SDS011;67485;48.816;9.930;2023-03-01T07:31:04;23.73;;;10.93;;
78209;SDS011;67485;48.816;9.930;2023-03-01T07:33:30;23.10;;;12.30;;
78209;SDS011;67485;48.816;9.930;2023-03-01T07:35:57;21.23;;;11.20;;
78209;SDS011;67485;48.816;9.930;2023-03-01T07:38:24;20.23;;;10.83;;
78209;SDS011;67485;48.816;9.930;2023-03-01T07:40:50;21.77;;;10.18;;
78209;SDS011;67485;48.816;9.930;2023-03-01T07:43:16;26.20;;;10.80;;
78209;SDS011;67485;48.816;9.930;2023-03-01T07:45:41;21.10;;;10.63;;
78209;SDS011;67485;48.816;9.930;2023-03-01T07:48:07;21.33;;;10.00;;
78209;SDS011;67485;48.816;9.930;2023-03-01T07:50:32;26.55;;;11.80;;
78209;SDS011;67485;48.816;9.930;2023-03-01T07:52:58;19.07;;;9.73;;
78209;SDS011;67485;48.816;9.930;2023-03-01T07:55:24;19.98;;;10.25;;
78209;SDS011;67485;48.816;9.930;2023-03-01T07:57:49;21.67;;;11.20;;
78209;SDS011;67485;48.816;9.930;2023-03-01T08:00:15;21.25;;;10.27;;
78209;SDS011;67485;48.816;9.930;2023-03-01T08:02:41;21.33;;;8.50;;
78209;SDS011;67485;48.816;9.930;2023-03-01T08:05:07;24.42;;;11.30;;
78209;SDS011;67485;48.816;9.930;2023-03-01T08:07:34;22.25;;;10.57;;
78209;SDS011;67485;48.816;9.930;2023-03-01T08:10:00;21.53;;;10.27;;
78209;SDS011;67485;48.816;9.930;2023-03-01T08:12:26;23.77;;;11.43;;
78209;SDS011;67485;48.816;9.930;2023-03-01T08:14:53;20.20;;;9.98;;
78209;SDS011;67485;48.816;9.930;2023-03-01T08:17:19;24.87;;;11.60;;
78209;SDS011;67485;48.816;9.930;2023-03-01T08:19:44;19.70;;;11.27;;
78209;SDS011;67485;48.816;9.930;2023-03-01T08:22:11;18.98;;;10.45;;
78209;SDS011;67485;48.816;9.930;2023-03-01T08:24:36;19.20;;;9.57;;
78209;SDS011;67485;48.816;9.930;2023-03-01T08:27:02;21.97;;;10.60;;
78209;SDS011;67485;48.816;9.930;2023-03-01T08:29:30;21.15;;;10.77;;
78209;SDS011;67485;48.816;9.930;2023-03-01T08:31:56;19.80;;;11.73;;
78209;SDS011;67485;48.816;9.930;2023-03-01T08:34:22;19.00;;;10.43;;
78209;SDS011;67485;48.816;9.930;2023-03-01T08:36:47;18.35;;;9.95;;
78209;SDS011;67485;48.816;9.930;2023-03-01T08:39:14;25.20;;;11.80;;
78209;SDS011;67485;48.816;9.930;2023-03-01T08:41:41;23.45;;;12.35;;
78209;SDS011;67485;48.816;9.930;2023-03-01T08:44:08;21.90;;;10.57;;
78209;SDS011;67485;48.816;9.930;2023-03-01T08:46:36;16.00;;;8.88;;
78209;SDS011;67485;48.816;9.930;2023-03-01T08:49:24;19.42;;;10.52;;
78209;SDS011;67485;48.816;9.930;2023-03-01T08:51:49;18.33;;;9.73;;
78209;SDS011;67485;48.816;9.930;2023-03-01T08:54:16;20.38;;;10.27;;
78209;SDS011;67485;48.816;9.930;2023-03-01T08:56:44;20.63;;;10.20;;
78209;SDS011;67485;48.816;9.930;2023-03-01T08:59:11;19.23;;;10.30;;
78209;SDS011;67485;48.816;9.930;2023-03-01T09:01:38;16.73;;;8.40;;
78209;SDS011;67485;48.816;9.930;2023-03-01T09:04:05;27.45;;;9.95;;
78209;SDS011;67485;48.816;9.930;2023-03-01T09:06:32;14.43;;;7.70;;
78209;SDS011;67485;48.816;9.930;2023-03-01T09:08:58;18.17;;;8.65;;
78209;SDS011;67485;48.816;9.930;2023-03-01T09:11:24;16.00;;;9.60;;
78209;SDS011;67485;48.816;9.930;2023-03-01T09:13:50;16.92;;;9.93;;
78209;SDS011;67485;48.816;9.930;2023-03-01T09:16:18;17.42;;;9.20;;
78209;SDS011;67485;48.816;9.930;2023-03-01T09:18:48;16.35;;;9.80;;
78209;SDS011;67485;48.816;9.930;2023-03-01T09:21:18;18.00;;;9.67;;
78209;SDS011;67485;48.816;9.930;2023-03-01T09:23:46;16.45;;;9.27;;
78209;SDS011;67485;48.816;9.930;2023-03-01T09:26:17;18.08;;;8.57;;
78209;SDS011;67485;48.816;9.930;2023-03-01T09:28:45;16.10;;;8.80;;
78209;SDS011;67485;48.816;9.930;2023-03-01T09:31:13;18.25;;;9.15;;
78209;SDS011;67485;48.816;9.930;2023-03-01T09:33:40;16.77;;;8.77;;
78209;SDS011;67485;48.816;9.930;2023-03-01T09:36:09;17.02;;;9.85;;
78209;SDS011;67485;48.816;9.930;2023-03-01T09:38:37;18.10;;;10.07;;
78209;SDS011;67485;48.816;9.930;2023-03-01T09:41:08;19.58;;;9.20;;
78209;SDS011;67485;48.816;9.930;2023-03-01T09:46:44;19.60;;;9.93;;
78209;SDS011;67485;48.816;9.930;2023-03-01T09:49:17;16.42;;;9.48;;
78209;SDS011;67485;48.816;9.930;2023-03-01T09:51:57;14.95;;;9.13;;
78209;SDS011;67485;48.816;9.930;2023-03-01T09:54:25;16.65;;;9.63;;
78209;SDS011;67485;48.816;9.930;2023-03-01T09:59:57;16.90;;;9.47;;
78209;SDS011;67485;48.816;9.930;2023-03-01T10:07:47;18.55;;;10.15;;
78209;SDS011;67485;48.816;9.930;2023-03-01T10:10:37;17.05;;;9.70;;
78209;SDS011;67485;48.816;9.930;2023-03-01T10:13:10;18.60;;;9.60;;
78209;SDS011;67485;48.816;9.930;2023-03-01T10:16:03;16.33;;;9.57;;
78209;SDS011;67485;48.816;9.930;2023-03-01T10:18:37;18.25;;;10.15;;
78209;SDS011;67485;48.816;9.930;2023-03-01T10:21:12;17.83;;;11.30;;
78209;SDS011;67485;48.816;9.930;2023-03-01T10:23:42;28.70;;;11.82;;
78209;SDS011;67485;48.816;9.930;2023-03-01T10:26:11;16.07;;;9.37;;
78209;SDS011;67485;48.816;9.930;2023-03-01T10:31:25;13.52;;;9.48;;
78209;SDS011;67485;48.816;9.930;2023-03-01T10:34:02;18.60;;;10.43;;
78209;SDS011;67485;48.816;9.930;2023-03-01T10:36:33;17.80;;;10.10;;
78209;SDS011;67485;48.816;9.930;2023-03-01T10:38:59;17.02;;;10.00;;
78209;SDS011;67485;48.816;9.930;2023-03-01T10:41:35;15.43;;;9.73;;
78209;SDS011;67485;48.816;9.930;2023-03-01T10:47:03;16.40;;;10.23;;
78209;SDS011;67485;48.816;9.930;2023-03-01T10:49:29;17.57;;;10.43;;
78209;SDS011;67485;48.816;9.930;2023-03-01T10:51:55;15.57;;;9.90;;
78209;SDS011;67485;48.816;9.930;2023-03-01T10:56:54;18.90;;;10.60;;
78209;SDS011;67485;48.816;9.930;2023-03-01T10:59:22;17.38;;;9.95;;
78209;SDS011;67485;48.816;9.930;2023-03-01T11:04:58;14.10;;;9.73;;
78209;SDS011;67485;48.816;9.930;2023-03-01T11:07:51;14.70;;;10.15;;
78209;SDS011;67485;48.816;9.930;2023-03-01T11:10:18;16.00;;;10.40;;
78209;SDS011;67485;48.816;9.930;2023-03-01T11:12:46;15.68;;;10.13;;
78209;SDS011;67485;48.816;9.930;2023-03-01T11:15:19;15.43;;;9.43;;
78209;SDS011;67485;48.816;9.930;2023-03-01T11:17:47;16.02;;;10.18;;
78209;SDS011;67485;48.816;9.930;2023-03-01T11:22:42;15.13;;;9.90;;
78209;SDS011;67485;48.816;9.930;2023-03-01T11:25:13;15.20;;;9.70;;
78209;SDS011;67485;48.816;9.930;2023-03-01T11:27:41;13.52;;;9.45;;
78209;SDS011;67485;48.816;9.930;2023-03-01T11:30:15;14.27;;;9.20;;
78209;SDS011;67485;48.816;9.930;2023-03-01T11:35:30;15.02;;;9.18;;
78209;SDS011;67485;48.816;9.930;2023-03-01T11:40:34;12.15;;;8.38;;
78209;SDS011;67485;48.816;9.930;2023-03-01T11:46:18;11.60;;;8.35;;
78209;SDS011;67485;48.816;9.930;2023-03-01T11:48:37;13.55;;;8.80;;
78209;SDS011;67485;48.816;9.930;2023-03-01T11:56:50;15.38;;;9.43;;
78209;SDS011;67485;48.816;9.930;2023-03-01T12:05:15;15.37;;;8.70;;
78209;SDS011;67485;48.816;9.930;2023-03-01T12:08:11;14.43;;;8.60;;
78209;SDS011;67485;48.816;9.930;2023-03-01T12:11:29;12.65;;;7.65;;
78209;SDS011;67485;48.816;9.930;2023-03-01T12:16:35;12.40;;;8.23;;
78209;SDS011;67485;48.816;9.930;2023-03-01T12:22:32;15.52;;;9.85;;
78209;SDS011;67485;48.816;9.930;2023-03-01T12:41:13;15.23;;;9.52;;
78209;SDS011;67485;48.816;9.930;2023-03-01T12:47:01;15.83;;;9.67;;
78209;SDS011;67485;48.816;9.930;2023-03-01T12:50:02;17.38;;;9.73;;
78209;SDS011;67485;48.816;9.930;2023-03-01T12:53:20;15.73;;;9.80;;
78209;SDS011;67485;48.816;9.930;2023-03-01T13:09:19;16.70;;;9.48;;
78209;SDS011;67485;48.816;9.930;2023-03-01T13:15:39;15.70;;;9.47;;
78209;SDS011;67485;48.816;9.930;2023-03-01T13:23:13;16.67;;;9.75;;
78209;SDS011;67485;48.816;9.930;2023-03-01T13:31:10;19.10;;;10.25;;
78209;SDS011;67485;48.816;9.930;2023-03-01T13:33:52;18.48;;;9.82;;
78209;SDS011;67485;48.816;9.930;2023-03-01T13:46:50;16.73;;;9.07;;
78209;SDS011;67485;48.816;9.930;2023-03-01T13:49:19;20.23;;;10.63;;
78209;SDS011;67485;48.816;9.930;2023-03-01T13:51:48;18.23;;;9.60;;
78209;SDS011;67485;48.816;9.930;2023-03-01T13:54:15;20.70;;;10.23;;
78209;SDS011;67485;48.816;9.930;2023-03-01T13:56:43;16.52;;;9.45;;
78209;SDS011;67485;48.816;9.930;2023-03-01T14:01:53;12.65;;;7.57;;
78209;SDS011;67485;48.816;9.930;2023-03-01T14:04:22;17.20;;;9.05;;
78209;SDS011;67485;48.816;9.930;2023-03-01T14:06:52;17.73;;;9.97;;
78209;SDS011;67485;48.816;9.930;2023-03-01T14:09:40;17.95;;;9.30;;
78209;SDS011;67485;48.816;9.930;2023-03-01T14:20:08;15.27;;;8.63;;
78209;SDS011;67485;48.816;9.930;2023-03-01T14:22:55;15.02;;;9.13;;
78209;SDS011;67485;48.816;9.930;2023-03-01T14:25:25;15.82;;;8.90;;
78209;SDS011;67485;48.816;9.930;2023-03-01T14:28:00;16.17;;;8.80;;
78209;SDS011;67485;48.816;9.930;2023-03-01T14:33:02;17.73;;;9.47;;
78209;SDS011;67485;48.816;9.930;2023-03-01T14:35:32;18.23;;;9.32;;
78209;SDS011;67485;48.816;9.930;2023-03-01T14:38:00;15.35;;;8.63;;
78209;SDS011;67485;48.816;9.930;2023-03-01T14:40:30;15.80;;;9.07;;
78209;SDS011;67485;48.816;9.930;2023-03-01T14:42:59;15.10;;;9.45;;
78209;SDS011;67485;48.816;9.930;2023-03-01T14:45:27;16.10;;;9.30;;
78209;SDS011;67485;48.816;9.930;2023-03-01T14:47:55;14.60;;;9.52;;
78209;SDS011;67485;48.816;9.930;2023-03-01T14:50:30;15.48;;;9.50;;
78209;SDS011;67485;48.816;9.930;2023-03-01T14:53:01;17.20;;;8.52;;
78209;SDS011;67485;48.816;9.930;2023-03-01T14:55:30;14.52;;;8.88;;
78209;SDS011;67485;48.816;9.930;2023-03-01T14:58:02;17.17;;;8.93;;
78209;SDS011;67485;48.816;9.930;2023-03-01T15:00:34;15.90;;;9.38;;
78209;SDS011;67485;48.816;9.930;2023-03-01T15:03:08;16.50;;;8.68;;
78209;SDS011;67485;48.816;9.930;2023-03-01T15:05:39;16.63;;;9.57;;
78209;SDS011;67485;48.816;9.930;2023-03-01T15:08:07;17.35;;;9.15;;
78209;SDS011;67485;48.816;9.930;2023-03-01T15:10:41;15.60;;;8.57;;
78209;SDS011;67485;48.816;9.930;2023-03-01T15:13:23;17.45;;;8.90;;
78209;SDS011;67485;48.816;9.930;2023-03-01T15:15:53;14.60;;;8.73;;
78209;SDS011;67485;48.816;9.930;2023-03-01T15:18:47;15.38;;;8.82;;
78209;SDS011;67485;48.816;9.930;2023-03-01T15:21:17;14.63;;;8.35;;
78209;SDS011;67485;48.816;9.930;2023-03-01T15:23:47;15.37;;;8.63;;
78209;SDS011;67485;48.816;9.930;2023-03-01T15:26:31;13.90;;;8.15;;
78209;SDS011;67485;48.816;9.930;2023-03-01T15:29:02;15.30;;;9.02;;
78209;SDS011;67485;48.816;9.930;2023-03-01T15:31:36;19.38;;;8.73;;
78209;SDS011;67485;48.816;9.930;2023-03-01T15:36:47;15.80;;;9.03;;
78209;SDS011;67485;48.816;9.930;2023-03-01T15:41:55;16.10;;;8.93;;
78209;SDS011;67485;48.816;9.930;2023-03-01T15:44:30;14.75;;;8.82;;
78209;SDS011;67485;48.816;9.930;2023-03-01T15:47:00;18.90;;;9.50;;
78209;SDS011;67485;48.816;9.930;2023-03-01T15:49:33;14.23;;;8.50;;
78209;SDS011;67485;48.816;9.930;2023-03-01T15:52:03;14.68;;;7.88;;
78209;SDS011;67485;48.816;9.930;2023-03-01T15:54:30;15.18;;;8.27;;
78209;SDS011;67485;48.816;9.930;2023-03-01T15:56:56;12.77;;;7.90;;
78209;SDS011;67485;48.816;9.930;2023-03-01T15:59:22;17.50;;;9.30;;
78209;SDS011;67485;48.816;9.930;2023-03-01T16:01:48;18.70;;;8.35;;
78209;SDS011;67485;48.816;9.930;2023-03-01T16:04:15;16.38;;;8.80;;
78209;SDS011;67485;48.816;9.930;2023-03-01T16:06:49;15.48;;;9.05;;
78209;SDS011;67485;48.816;9.930;2023-03-01T16:09:24;16.95;;;9.23;;
78209;SDS011;67485;48.816;9.930;2023-03-01T16:11:51;14.63;;;8.17;;
78209;SDS011;67485;48.816;9.930;2023-03-01T16:14:18;15.05;;;8.90;;
78209;SDS011;67485;48.816;9.930;2023-03-01T16:16:44;16.30;;;8.77;;
78209;SDS011;67485;48.816;9.930;2023-03-01T16:19:10;16.63;;;8.57;;
78209;SDS011;67485;48.816;9.930;2023-03-01T16:21:36;15.25;;;8.80;;
78209;SDS011;67485;48.816;9.930;2023-03-01T16:24:03;17.53;;;9.03;;
78209;SDS011;67485;48.816;9.930;2023-03-01T16:26:29;17.33;;;9.30;;
78209;SDS011;67485;48.816;9.930;2023-03-01T16:28:55;16.83;;;9.55;;
78209;SDS011;67485;48.816;9.930;2023-03-01T16:31:22;15.50;;;9.17;;
78209;SDS011;67485;48.816;9.930;2023-03-01T16:33:48;16.63;;;9.00;;
78209;SDS011;67485;48.816;9.930;2023-03-01T16:36:17;17.10;;;8.75;;
78209;SDS011;67485;48.816;9.930;2023-03-01T16:38:44;16.67;;;9.27;;
78209;SDS011;67485;48.816;9.930;2023-03-01T16:41:13;19.42;;;9.00;;
78209;SDS011;67485;48.816;9.930;2023-03-01T16:43:40;22.13;;;9.47;;
78209;SDS011;67485;48.816;9.930;2023-03-01T16:46:13;18.50;;;9.93;;
78209;SDS011;67485;48.816;9.930;2023-03-01T16:48:41;18.33;;;9.85;;
78209;SDS011;67485;48.816;9.930;2023-03-01T16:51:07;18.80;;;9.87;;
78209;SDS011;67485;48.816;9.930;2023-03-01T16:53:33;18.55;;;9.68;;
78209;SDS011;67485;48.816;9.930;2023-03-01T16:56:04;18.05;;;9.68;;
78209;SDS011;67485;48.816;9.930;2023-03-01T16:58:33;15.45;;;8.77;;
78209;SDS011;67485;48.816;9.930;2023-03-01T17:01:03;17.15;;;9.88;;